sensor_id;sensor_type;location;lat;lon;timestamp;P1;durP1;ratioP1;P2;durP2;ratioP2
45274;SDS011;31019;43.780;25.948;2023-04-25T00:02:20;328.60;;;300.90;;
45274;SDS011;31019;43.780;25.948;2023-04-25T00:05:12;380.42;;;347.63;;
45274;SDS011;31019;43.780;25.948;2023-04-25T00:07:52;340.83;;;312.58;;
45274;SDS011;31019;43.780;25.948;2023-04-25T00:10:39;323.17;;;297.35;;
45274;SDS011;31019;43.780;25.948;2023-04-25T00:13:28;322.20;;;296.23;;
45274;SDS011;31019;43.780;25.948;2023-04-25T00:16:20;294.63;;;271.42;;
45274;SDS011;31019;43.780;25.948;2023-04-25T00:18:58;306.85;;;282.05;;
45274;SDS011;31019;43.780;25.948;2023-04-25T00:21:54;185.10;;;170.50;;
45274;SDS011;31019;43.780;25.948;2023-04-25T00:24:40;172.48;;;158.27;;
45274;SDS011;31019;43.780;25.948;2023-04-25T00:27:38;181.43;;;166.90;;
45274;SDS011;31019;43.780;25.948;2023-04-25T00:30:31;330.40;;;301.73;;
45274;SDS011;31019;43.780;25.948;2023-04-25T00:33:12;328.80;;;300.58;;
45274;SDS011;31019;43.780;25.948;2023-04-25T00:36:01;354.65;;;322.70;;
45274;SDS011;31019;43.780;25.948;2023-04-25T00:41:48;308.33;;;282.45;;
45274;SDS011;31019;43.780;25.948;2023-04-25T00:44:36;314.10;;;287.95;;
45274;SDS011;31019;43.780;25.948;2023-04-25T00:47:24;305.65;;;280.02;;
45274;SDS011;31019;43.780;25.948;2023-04-25T00:50:34;291.77;;;267.55;;
45274;SDS011;31019;43.780;25.948;2023-04-25T00:53:32;315.67;;;289.85;;
45274;SDS011;31019;43.780;25.948;2023-04-25T01:05:23;182.40;;;167.05;;
45274;SDS011;31019;43.780;25.948;2023-04-25T01:05:54;300.27;;;275.30;;
45274;SDS011;31019;43.780;25.948;2023-04-25T01:08:43;323.50;;;295.77;;
45274;SDS011;31019;43.780;25.948;2023-04-25T01:11:31;312.27;;;285.73;;
45274;SDS011;31019;43.780;25.948;2023-04-25T01:14:51;321.70;;;294.45;;
45274;SDS011;31019;43.780;25.948;2023-04-25T01:27:17;204.85;;;185.80;;
45274;SDS011;31019;43.780;25.948;2023-04-25T01:33:14;176.23;;;161.80;;
45274;SDS011;31019;43.780;25.948;2023-04-25T01:36:49;289.33;;;266.00;;
45274;SDS011;31019;43.780;25.948;2023-04-25T01:39:32;282.38;;;259.60;;
45274;SDS011;31019;43.780;25.948;2023-04-25T01:45:45;257.95;;;241.05;;
45274;SDS011;31019;43.780;25.948;2023-04-25T01:48:43;192.38;;;177.10;;
45274;SDS011;31019;43.780;25.948;2023-04-25T01:51:34;202.52;;;186.73;;
45274;SDS011;31019;43.780;25.948;2023-04-25T01:57:49;175.40;;;160.57;;
45274;SDS011;31019;43.780;25.948;2023-04-25T02:01:34;238.27;;;207.90;;
45274;SDS011;31019;43.780;25.948;2023-04-25T02:04:43;170.27;;;155.40;;
45274;SDS011;31019;43.780;25.948;2023-04-25T02:14:10;176.85;;;161.60;;
45274;SDS011;31019;43.780;25.948;2023-04-25T02:17:09;168.27;;;154.13;;
45274;SDS011;31019;43.780;25.948;2023-04-25T02:22:55;177.20;;;162.55;;
45274;SDS011;31019;43.780;25.948;2023-04-25T02:28:57;170.88;;;155.23;;
45274;SDS011;31019;43.780;25.948;2023-04-25T02:38:14;209.93;;;194.18;;
45274;SDS011;31019;43.780;25.948;2023-04-25T02:41:18;191.88;;;176.48;;
45274;SDS011;31019;43.780;25.948;2023-04-25T02:44:20;174.52;;;159.93;;
45274;SDS011;31019;43.780;25.948;2023-04-25T02:47:19;216.38;;;195.63;;
45274;SDS011;31019;43.780;25.948;2023-04-25T02:50:30;171.90;;;156.02;;
45274;SDS011;31019;43.780;25.948;2023-04-25T02:53:29;171.48;;;156.65;;
45274;SDS011;31019;43.780;25.948;2023-04-25T02:56:59;160.13;;;147.05;;
45274;SDS011;31019;43.780;25.948;2023-04-25T02:59:34;189.20;;;172.40;;
45274;SDS011;31019;43.780;25.948;2023-04-25T03:02:41;201.55;;;183.32;;
45274;SDS011;31019;43.780;25.948;2023-04-25T03:09:12;156.45;;;141.88;;
45274;SDS011;31019;43.780;25.948;2023-04-25T03:12:11;225.25;;;183.48;;
45274;SDS011;31019;43.780;25.948;2023-04-25T03:15:23;160.90;;;147.52;;
45274;SDS011;31019;43.780;25.948;2023-04-25T03:18:24;149.27;;;137.52;;
45274;SDS011;31019;43.780;25.948;2023-04-25T03:21:20;248.90;;;230.32;;
45274;SDS011;31019;43.780;25.948;2023-04-25T03:24:06;216.20;;;200.02;;
45274;SDS011;31019;43.780;25.948;2023-04-25T03:27:12;281.45;;;247.52;;
45274;SDS011;31019;43.780;25.948;2023-04-25T03:29:59;177.10;;;162.85;;
45274;SDS011;31019;43.780;25.948;2023-04-25T03:33:04;193.20;;;179.75;;
45274;SDS011;31019;43.780;25.948;2023-04-25T03:35:58;182.02;;;169.13;;
45274;SDS011;31019;43.780;25.948;2023-04-25T03:39:15;171.77;;;158.68;;
45274;SDS011;31019;43.780;25.948;2023-04-25T03:45:34;109.97;;;100.70;;
45274;SDS011;31019;43.780;25.948;2023-04-25T03:52:06;136.85;;;126.85;;
45274;SDS011;31019;43.780;25.948;2023-04-25T03:55:20;127.80;;;118.43;;
45274;SDS011;31019;43.780;25.948;2023-04-25T03:59:17;120.32;;;111.35;;
45274;SDS011;31019;43.780;25.948;2023-04-25T04:01:22;150.57;;;139.82;;
45274;SDS011;31019;43.780;25.948;2023-04-25T04:05:04;133.10;;;123.18;;
45274;SDS011;31019;43.780;25.948;2023-04-25T04:07:52;93.18;;;85.55;;
45274;SDS011;31019;43.780;25.948;2023-04-25T04:10:51;88.75;;;81.25;;
45274;SDS011;31019;43.780;25.948;2023-04-25T04:13:55;85.28;;;78.18;;
45274;SDS011;31019;43.780;25.948;2023-04-25T04:20:43;84.88;;;77.57;;
45274;SDS011;31019;43.780;25.948;2023-04-25T04:23:48;88.00;;;80.50;;
45274;SDS011;31019;43.780;25.948;2023-04-25T04:27:13;84.97;;;77.60;;
45274;SDS011;31019;43.780;25.948;2023-04-25T04:29:38;76.35;;;69.75;;
45274;SDS011;31019;43.780;25.948;2023-04-25T04:32:34;77.63;;;70.82;;
45274;SDS011;31019;43.780;25.948;2023-04-25T04:38:49;83.97;;;77.03;;
45274;SDS011;31019;43.780;25.948;2023-04-25T04:41:51;88.70;;;81.22;;
45274;SDS011;31019;43.780;25.948;2023-04-25T04:44:52;95.57;;;87.57;;
45274;SDS011;31019;43.780;25.948;2023-04-25T04:47:47;97.40;;;89.03;;
45274;SDS011;31019;43.780;25.948;2023-04-25T04:51:04;104.60;;;95.15;;
45274;SDS011;31019;43.780;25.948;2023-04-25T04:57:04;94.80;;;86.82;;
45274;SDS011;31019;43.780;25.948;2023-04-25T05:03:04;102.68;;;93.85;;
45274;SDS011;31019;43.780;25.948;2023-04-25T05:06:13;104.72;;;94.93;;
45274;SDS011;31019;43.780;25.948;2023-04-25T05:08:54;106.70;;;97.60;;
45274;SDS011;31019;43.780;25.948;2023-04-25T05:12:06;103.47;;;95.28;;
45274;SDS011;31019;43.780;25.948;2023-04-25T05:14:50;106.05;;;97.50;;
45274;SDS011;31019;43.780;25.948;2023-04-25T05:17:42;114.47;;;105.47;;
45274;SDS011;31019;43.780;25.948;2023-04-25T05:20:41;116.28;;;107.28;;
45274;SDS011;31019;43.780;25.948;2023-04-25T05:23:44;139.38;;;128.98;;
45274;SDS011;31019;43.780;25.948;2023-04-25T05:26:59;126.53;;;116.97;;
45274;SDS011;31019;43.780;25.948;2023-04-25T05:31:08;142.38;;;131.18;;
45274;SDS011;31019;43.780;25.948;2023-04-25T05:36:32;120.03;;;110.22;;
45274;SDS011;31019;43.780;25.948;2023-04-25T05:39:36;122.07;;;112.07;;
45274;SDS011;31019;43.780;25.948;2023-04-25T05:42:42;123.28;;;113.38;;
45274;SDS011;31019;43.780;25.948;2023-04-25T05:45:46;126.63;;;116.68;;
45274;SDS011;31019;43.780;25.948;2023-04-25T05:48:55;111.88;;;102.10;;
45274;SDS011;31019;43.780;25.948;2023-04-25T05:55:19;165.27;;;152.02;;
45274;SDS011;31019;43.780;25.948;2023-04-25T06:04:38;147.23;;;131.75;;
45274;SDS011;31019;43.780;25.948;2023-04-25T06:07:26;136.38;;;124.03;;
45274;SDS011;31019;43.780;25.948;2023-04-25T06:10:34;136.98;;;124.47;;
45274;SDS011;31019;43.780;25.948;2023-04-25T06:13:23;131.88;;;120.38;;
45274;SDS011;31019;43.780;25.948;2023-04-25T06:16:30;139.73;;;128.23;;
45274;SDS011;31019;43.780;25.948;2023-04-25T06:19:33;143.55;;;131.13;;
45274;SDS011;31019;43.780;25.948;2023-04-25T06:22:25;140.95;;;128.27;;
45274;SDS011;31019;43.780;25.948;2023-04-25T06:25:19;132.50;;;120.50;;
45274;SDS011;31019;43.780;25.948;2023-04-25T06:28:10;136.05;;;123.47;;
45274;SDS011;31019;43.780;25.948;2023-04-25T06:34:26;130.27;;;118.32;;
45274;SDS011;31019;43.780;25.948;2023-04-25T06:37:18;130.13;;;117.95;;
45274;SDS011;31019;43.780;25.948;2023-04-25T06:40:36;145.23;;;131.52;;
45274;SDS011;31019;43.780;25.948;2023-04-25T06:46:16;144.27;;;130.98;;
45274;SDS011;31019;43.780;25.948;2023-04-25T06:49:03;143.57;;;130.75;;
45274;SDS011;31019;43.780;25.948;2023-04-25T06:55:35;139.80;;;127.30;;
45274;SDS011;31019;43.780;25.948;2023-04-25T06:58:38;138.02;;;125.63;;
45274;SDS011;31019;43.780;25.948;2023-04-25T07:01:28;178.68;;;163.18;;
45274;SDS011;31019;43.780;25.948;2023-04-25T07:05:00;155.15;;;141.10;;
45274;SDS011;31019;43.780;25.948;2023-04-25T07:07:29;143.30;;;130.65;;
45274;SDS011;31019;43.780;25.948;2023-04-25T07:10:31;131.90;;;120.95;;
45274;SDS011;31019;43.780;25.948;2023-04-25T07:13:24;125.47;;;113.68;;
45274;SDS011;31019;43.780;25.948;2023-04-25T07:16:34;136.10;;;124.35;;
45274;SDS011;31019;43.780;25.948;2023-04-25T07:19:14;131.80;;;120.60;;
45274;SDS011;31019;43.780;25.948;2023-04-25T07:21:58;128.13;;;116.80;;
45274;SDS011;31019;43.780;25.948;2023-04-25T07:24:51;129.00;;;117.97;;
45274;SDS011;31019;43.780;25.948;2023-04-25T07:27:50;127.78;;;116.55;;
45274;SDS011;31019;43.780;25.948;2023-04-25T07:33:55;129.65;;;118.70;;
45274;SDS011;31019;43.780;25.948;2023-04-25T07:37:24;155.15;;;142.25;;
45274;SDS011;31019;43.780;25.948;2023-04-25T07:43:41;153.32;;;140.38;;
45274;SDS011;31019;43.780;25.948;2023-04-25T07:46:47;138.77;;;126.57;;
45274;SDS011;31019;43.780;25.948;2023-04-25T07:49:50;145.45;;;132.88;;
45274;SDS011;31019;43.780;25.948;2023-04-25T07:52:48;151.27;;;138.23;;
45274;SDS011;31019;43.780;25.948;2023-04-25T07:55:27;139.77;;;127.88;;
45274;SDS011;31019;43.780;25.948;2023-04-25T07:58:37;144.75;;;132.85;;
45274;SDS011;31019;43.780;25.948;2023-04-25T08:04:43;139.18;;;127.20;;
45274;SDS011;31019;43.780;25.948;2023-04-25T08:08:17;139.60;;;127.72;;
45274;SDS011;31019;43.780;25.948;2023-04-25T08:11:09;130.20;;;118.28;;
45274;SDS011;31019;43.780;25.948;2023-04-25T08:17:16;141.95;;;131.05;;
45274;SDS011;31019;43.780;25.948;2023-04-25T08:26:23;109.22;;;100.63;;
45274;SDS011;31019;43.780;25.948;2023-04-25T08:29:18;121.25;;;111.82;;
45274;SDS011;31019;43.780;25.948;2023-04-25T08:32:08;129.55;;;119.43;;
45274;SDS011;31019;43.780;25.948;2023-04-25T08:38:06;162.63;;;147.93;;
45274;SDS011;31019;43.780;25.948;2023-04-25T08:44:34;128.45;;;118.80;;
45274;SDS011;31019;43.780;25.948;2023-04-25T08:47:56;134.35;;;123.70;;
45274;SDS011;31019;43.780;25.948;2023-04-25T08:51:09;137.10;;;126.20;;
45274;SDS011;31019;43.780;25.948;2023-04-25T08:54:16;150.75;;;138.65;;
45274;SDS011;31019;43.780;25.948;2023-04-25T08:57:18;157.90;;;145.30;;
45274;SDS011;31019;43.780;25.948;2023-04-25T09:00:30;164.82;;;151.52;;
45274;SDS011;31019;43.780;25.948;2023-04-25T09:03:49;173.85;;;160.15;;
45274;SDS011;31019;43.780;25.948;2023-04-25T09:06:38;150.10;;;138.50;;
45274;SDS011;31019;43.780;25.948;2023-04-25T09:09:25;162.00;;;149.30;;
45274;SDS011;31019;43.780;25.948;2023-04-25T09:12:18;154.68;;;143.07;;
45274;SDS011;31019;43.780;25.948;2023-04-25T09:15:34;178.50;;;166.20;;
45274;SDS011;31019;43.780;25.948;2023-04-25T09:18:25;191.88;;;179.13;;
45274;SDS011;31019;43.780;25.948;2023-04-25T09:21:32;258.85;;;241.25;;
45274;SDS011;31019;43.780;25.948;2023-04-25T09:25:13;154.70;;;144.33;;
45274;SDS011;31019;43.780;25.948;2023-04-25T09:28:40;144.43;;;134.57;;
45274;SDS011;31019;43.780;25.948;2023-04-25T09:44:20;39.15;;;36.25;;
45274;SDS011;31019;43.780;25.948;2023-04-25T09:47:27;47.53;;;43.85;;
45274;SDS011;31019;43.780;25.948;2023-04-25T09:50:28;42.25;;;39.17;;
45274;SDS011;31019;43.780;25.948;2023-04-25T09:53:11;41.22;;;38.38;;
45274;SDS011;31019;43.780;25.948;2023-04-25T09:56:18;42.47;;;39.55;;
45274;SDS011;31019;43.780;25.948;2023-04-25T09:59:02;56.33;;;52.17;;
45274;SDS011;31019;43.780;25.948;2023-04-25T10:01:55;43.22;;;40.78;;
45274;SDS011;31019;43.780;25.948;2023-04-25T10:04:58;46.13;;;43.30;;
45274;SDS011;31019;43.780;25.948;2023-04-25T10:10:25;39.25;;;36.58;;
45274;SDS011;31019;43.780;25.948;2023-04-25T10:16:47;28.38;;;26.67;;
45274;SDS011;31019;43.780;25.948;2023-04-25T10:19:54;27.67;;;25.98;;
45274;SDS011;31019;43.780;25.948;2023-04-25T10:25:52;25.02;;;23.42;;
45274;SDS011;31019;43.780;25.948;2023-04-25T10:31:20;23.50;;;22.20;;
45274;SDS011;31019;43.780;25.948;2023-04-25T10:32:17;25.42;;;23.92;;
45274;SDS011;31019;43.780;25.948;2023-04-25T10:35:25;21.60;;;20.10;;
45274;SDS011;31019;43.780;25.948;2023-04-25T10:41:27;35.22;;;33.33;;
45274;SDS011;31019;43.780;25.948;2023-04-25T10:44:01;27.65;;;25.95;;
45274;SDS011;31019;43.780;25.948;2023-04-25T10:47:12;24.35;;;22.85;;
45274;SDS011;31019;43.780;25.948;2023-04-25T10:57:00;28.50;;;26.52;;
45274;SDS011;31019;43.780;25.948;2023-04-25T11:00:10;30.25;;;28.15;;
45274;SDS011;31019;43.780;25.948;2023-04-25T11:03:17;30.30;;;28.40;;
45274;SDS011;31019;43.780;25.948;2023-04-25T11:06:41;27.58;;;25.88;;
45274;SDS011;31019;43.780;25.948;2023-04-25T11:19:33;29.15;;;27.25;;
45274;SDS011;31019;43.780;25.948;2023-04-25T11:22:35;32.70;;;30.40;;
45274;SDS011;31019;43.780;25.948;2023-04-25T11:25:43;32.33;;;30.13;;
45274;SDS011;31019;43.780;25.948;2023-04-25T11:28:40;29.23;;;27.23;;
45274;SDS011;31019;43.780;25.948;2023-04-25T11:35:16;34.30;;;31.80;;
45274;SDS011;31019;43.780;25.948;2023-04-25T11:38:05;37.90;;;35.00;;
45274;SDS011;31019;43.780;25.948;2023-04-25T11:40:57;41.58;;;38.58;;
45274;SDS011;31019;43.780;25.948;2023-04-25T11:43:42;46.65;;;43.20;;
45274;SDS011;31019;43.780;25.948;2023-04-25T11:53:26;63.83;;;59.20;;
45274;SDS011;31019;43.780;25.948;2023-04-25T11:56:28;50.40;;;46.85;;
45274;SDS011;31019;43.780;25.948;2023-04-25T11:59:35;66.22;;;61.53;;
45274;SDS011;31019;43.780;25.948;2023-04-25T12:05:42;106.45;;;99.70;;
45274;SDS011;31019;43.780;25.948;2023-04-25T12:15:15;63.63;;;59.28;;
45274;SDS011;31019;43.780;25.948;2023-04-25T12:18:36;67.72;;;63.22;;
45274;SDS011;31019;43.780;25.948;2023-04-25T12:21:34;71.68;;;67.03;;
45274;SDS011;31019;43.780;25.948;2023-04-25T12:25:04;50.55;;;47.15;;
45274;SDS011;31019;43.780;25.948;2023-04-25T12:41:00;26.05;;;24.45;;
45274;SDS011;31019;43.780;25.948;2023-04-25T12:44:18;28.48;;;26.67;;
45274;SDS011;31019;43.780;25.948;2023-04-25T12:46:48;28.05;;;26.25;;
45274;SDS011;31019;43.780;25.948;2023-04-25T12:49:53;27.45;;;25.63;;
45274;SDS011;31019;43.780;25.948;2023-04-25T12:52:42;26.38;;;24.75;;
45274;SDS011;31019;43.780;25.948;2023-04-25T12:59:20;32.63;;;30.33;;
45274;SDS011;31019;43.780;25.948;2023-04-25T13:02:30;24.52;;;22.92;;
45274;SDS011;31019;43.780;25.948;2023-04-25T13:05:22;27.15;;;25.25;;
45274;SDS011;31019;43.780;25.948;2023-04-25T13:08:14;21.27;;;19.88;;
45274;SDS011;31019;43.780;25.948;2023-04-25T13:11:12;20.92;;;19.45;;
45274;SDS011;31019;43.780;25.948;2023-04-25T13:14:10;19.13;;;17.92;;
45274;SDS011;31019;43.780;25.948;2023-04-25T13:20:02;23.98;;;22.48;;
45274;SDS011;31019;43.780;25.948;2023-04-25T13:22:54;19.90;;;18.70;;
45274;SDS011;31019;43.780;25.948;2023-04-25T13:25:37;19.92;;;18.52;;
45274;SDS011;31019;43.780;25.948;2023-04-25T13:29:04;20.30;;;18.85;;
45274;SDS011;31019;43.780;25.948;2023-04-25T13:32:05;18.48;;;17.17;;
45274;SDS011;31019;43.780;25.948;2023-04-25T13:35:04;17.80;;;16.45;;
45274;SDS011;31019;43.780;25.948;2023-04-25T13:38:03;19.92;;;18.73;;
45274;SDS011;31019;43.780;25.948;2023-04-25T13:41:30;19.25;;;18.00;;
45274;SDS011;31019;43.780;25.948;2023-04-25T13:44:26;20.00;;;18.80;;
45274;SDS011;31019;43.780;25.948;2023-04-25T13:49:58;21.23;;;19.85;;
45274;SDS011;31019;43.780;25.948;2023-04-25T13:52:52;20.42;;;19.13;;
45274;SDS011;31019;43.780;25.948;2023-04-25T13:55:51;20.60;;;19.20;;
45274;SDS011;31019;43.780;25.948;2023-04-25T13:59:00;19.73;;;18.42;;
45274;SDS011;31019;43.780;25.948;2023-04-25T14:05:24;18.23;;;17.02;;
45274;SDS011;31019;43.780;25.948;2023-04-25T14:08:36;18.98;;;17.52;;
45274;SDS011;31019;43.780;25.948;2023-04-25T14:11:44;23.55;;;22.15;;
45274;SDS011;31019;43.780;25.948;2023-04-25T14:23:49;18.45;;;17.30;;
45274;SDS011;31019;43.780;25.948;2023-04-25T14:26:45;18.45;;;17.15;;
45274;SDS011;31019;43.780;25.948;2023-04-25T14:29:52;21.70;;;20.15;;
45274;SDS011;31019;43.780;25.948;2023-04-25T14:46:13;23.58;;;22.05;;
45274;SDS011;31019;43.780;25.948;2023-04-25T14:49:08;21.70;;;20.40;;
45274;SDS011;31019;43.780;25.948;2023-04-25T14:53:21;20.13;;;18.92;;
45274;SDS011;31019;43.780;25.948;2023-04-25T14:58:41;20.73;;;19.42;;
45274;SDS011;31019;43.780;25.948;2023-04-25T15:04:37;21.92;;;20.58;;
45274;SDS011;31019;43.780;25.948;2023-04-25T15:07:45;35.13;;;32.17;;
45274;SDS011;31019;43.780;25.948;2023-04-25T15:13:40;57.47;;;53.17;;
45274;SDS011;31019;43.780;25.948;2023-04-25T15:16:43;58.33;;;53.53;;
45274;SDS011;31019;43.780;25.948;2023-04-25T15:19:47;88.25;;;81.95;;
45274;SDS011;31019;43.780;25.948;2023-04-25T15:22:45;113.93;;;105.60;;
45274;SDS011;31019;43.780;25.948;2023-04-25T15:25:57;116.85;;;107.95;;
45274;SDS011;31019;43.780;25.948;2023-04-25T15:28:37;123.95;;;114.55;;
45274;SDS011;31019;43.780;25.948;2023-04-25T15:34:21;112.50;;;103.40;;
45274;SDS011;31019;43.780;25.948;2023-04-25T15:37:12;109.68;;;101.00;;
45274;SDS011;31019;43.780;25.948;2023-04-25T15:43:29;98.05;;;90.35;;
45274;SDS011;31019;43.780;25.948;2023-04-25T15:46:46;92.70;;;85.22;;
45274;SDS011;31019;43.780;25.948;2023-04-25T15:49:35;97.93;;;90.13;;
45274;SDS011;31019;43.780;25.948;2023-04-25T15:52:34;94.88;;;87.50;;
45274;SDS011;31019;43.780;25.948;2023-04-25T15:55:39;86.32;;;79.05;;
45274;SDS011;31019;43.780;25.948;2023-04-25T15:58:30;103.88;;;95.78;;
45274;SDS011;31019;43.780;25.948;2023-04-25T16:01:22;104.65;;;96.13;;
45274;SDS011;31019;43.780;25.948;2023-04-25T16:04:30;103.05;;;94.63;;
45274;SDS011;31019;43.780;25.948;2023-04-25T16:10:44;130.80;;;121.07;;
45274;SDS011;31019;43.780;25.948;2023-04-25T16:13:36;122.30;;;112.90;;
45274;SDS011;31019;43.780;25.948;2023-04-25T16:16:17;113.57;;;105.22;;
45274;SDS011;31019;43.780;25.948;2023-04-25T16:19:36;124.50;;;115.80;;
45274;SDS011;31019;43.780;25.948;2023-04-25T16:22:29;127.72;;;118.18;;
45274;SDS011;31019;43.780;25.948;2023-04-25T16:28:40;130.82;;;121.57;;
45274;SDS011;31019;43.780;25.948;2023-04-25T16:31:46;127.43;;;118.28;;
45274;SDS011;31019;43.780;25.948;2023-04-25T16:34:31;116.53;;;107.22;;
45274;SDS011;31019;43.780;25.948;2023-04-25T16:37:17;110.65;;;102.35;;
45274;SDS011;31019;43.780;25.948;2023-04-25T16:43:41;117.32;;;107.82;;
45274;SDS011;31019;43.780;25.948;2023-04-25T16:46:25;100.68;;;92.88;;
45274;SDS011;31019;43.780;25.948;2023-04-25T16:50:33;92.38;;;85.05;;
45274;SDS011;31019;43.780;25.948;2023-04-25T16:52:35;102.97;;;94.60;;
45274;SDS011;31019;43.780;25.948;2023-04-25T16:55:21;106.97;;;98.68;;
45274;SDS011;31019;43.780;25.948;2023-04-25T16:58:07;101.18;;;92.90;;
45274;SDS011;31019;43.780;25.948;2023-04-25T17:07:05;97.00;;;88.80;;
45274;SDS011;31019;43.780;25.948;2023-04-25T17:10:24;96.10;;;87.90;;
45274;SDS011;31019;43.780;25.948;2023-04-25T17:13:28;100.00;;;91.50;;
45274;SDS011;31019;43.780;25.948;2023-04-25T17:16:21;93.25;;;85.00;;
45274;SDS011;31019;43.780;25.948;2023-04-25T17:19:10;102.45;;;93.95;;
45274;SDS011;31019;43.780;25.948;2023-04-25T17:28:52;96.68;;;88.25;;
45274;SDS011;31019;43.780;25.948;2023-04-25T17:32:01;97.45;;;88.15;;
45274;SDS011;31019;43.780;25.948;2023-04-25T17:34:55;94.32;;;85.93;;
45274;SDS011;31019;43.780;25.948;2023-04-25T17:38:01;97.65;;;89.00;;
45274;SDS011;31019;43.780;25.948;2023-04-25T17:40:59;95.55;;;87.30;;
45274;SDS011;31019;43.780;25.948;2023-04-25T17:46:49;91.63;;;84.03;;
45274;SDS011;31019;43.780;25.948;2023-04-25T17:49:36;96.57;;;88.50;;
45274;SDS011;31019;43.780;25.948;2023-04-25T17:52:12;110.88;;;102.18;;
45274;SDS011;31019;43.780;25.948;2023-04-25T17:55:09;100.65;;;92.50;;
45274;SDS011;31019;43.780;25.948;2023-04-25T17:58:11;99.43;;;91.47;;
45274;SDS011;31019;43.780;25.948;2023-04-25T18:03:58;102.78;;;94.18;;
45274;SDS011;31019;43.780;25.948;2023-04-25T18:06:59;89.00;;;81.05;;
45274;SDS011;31019;43.780;25.948;2023-04-25T18:09:34;91.63;;;83.82;;
45274;SDS011;31019;43.780;25.948;2023-04-25T18:12:05;85.20;;;77.90;;
45274;SDS011;31019;43.780;25.948;2023-04-25T18:14:43;88.35;;;80.78;;
45274;SDS011;31019;43.780;25.948;2023-04-25T18:17:43;84.22;;;77.32;;
45274;SDS011;31019;43.780;25.948;2023-04-25T18:20:24;84.25;;;77.05;;
45274;SDS011;31019;43.780;25.948;2023-04-25T18:23:00;91.88;;;84.20;;
45274;SDS011;31019;43.780;25.948;2023-04-25T18:25:46;91.85;;;84.05;;
45274;SDS011;31019;43.780;25.948;2023-04-25T18:28:19;94.60;;;86.90;;
45274;SDS011;31019;43.780;25.948;2023-04-25T18:31:06;95.05;;;87.05;;
45274;SDS011;31019;43.780;25.948;2023-04-25T18:37:31;97.65;;;89.55;;
45274;SDS011;31019;43.780;25.948;2023-04-25T18:40:51;87.47;;;80.25;;
45274;SDS011;31019;43.780;25.948;2023-04-25T18:44:07;82.45;;;75.45;;
45274;SDS011;31019;43.780;25.948;2023-04-25T18:46:50;96.25;;;88.80;;
45274;SDS011;31019;43.780;25.948;2023-04-25T18:56:20;174.68;;;162.65;;
45274;SDS011;31019;43.780;25.948;2023-04-25T19:05:19;150.23;;;140.13;;
45274;SDS011;31019;43.780;25.948;2023-04-25T19:08:16;143.60;;;133.73;;
45274;SDS011;31019;43.780;25.948;2023-04-25T19:11:02;143.55;;;133.63;;
45274;SDS011;31019;43.780;25.948;2023-04-25T19:26:45;91.63;;;84.38;;
45274;SDS011;31019;43.780;25.948;2023-04-25T19:29:24;89.20;;;81.97;;
45274;SDS011;31019;43.780;25.948;2023-04-25T19:32:21;87.10;;;79.80;;
45274;SDS011;31019;43.780;25.948;2023-04-25T19:35:44;87.25;;;79.85;;
45274;SDS011;31019;43.780;25.948;2023-04-25T19:47:37;96.22;;;88.38;;
45274;SDS011;31019;43.780;25.948;2023-04-25T19:50:23;90.22;;;82.32;;
45274;SDS011;31019;43.780;25.948;2023-04-25T19:56:27;88.05;;;80.32;;
45274;SDS011;31019;43.780;25.948;2023-04-25T20:02:54;88.90;;;81.00;;
45274;SDS011;31019;43.780;25.948;2023-04-25T20:05:42;93.95;;;85.95;;
45274;SDS011;31019;43.780;25.948;2023-04-25T20:08:48;109.10;;;100.10;;
45274;SDS011;31019;43.780;25.948;2023-04-25T20:11:23;95.75;;;87.55;;
45274;SDS011;31019;43.780;25.948;2023-04-25T20:14:27;109.75;;;101.05;;
45274;SDS011;31019;43.780;25.948;2023-04-25T20:17:21;95.25;;;87.65;;
45274;SDS011;31019;43.780;25.948;2023-04-25T20:20:28;109.32;;;100.07;;
45274;SDS011;31019;43.780;25.948;2023-04-25T20:29:38;86.90;;;79.50;;
45274;SDS011;31019;43.780;25.948;2023-04-25T20:42:07;114.37;;;105.47;;
45274;SDS011;31019;43.780;25.948;2023-04-25T20:44:59;144.70;;;133.90;;
45274;SDS011;31019;43.780;25.948;2023-04-25T20:47:54;130.82;;;121.10;;
45274;SDS011;31019;43.780;25.948;2023-04-25T20:50:28;128.27;;;118.78;;
45274;SDS011;31019;43.780;25.948;2023-04-25T20:53:19;110.35;;;101.28;;
45274;SDS011;31019;43.780;25.948;2023-04-25T20:56:07;203.25;;;188.55;;
45274;SDS011;31019;43.780;25.948;2023-04-25T20:58:59;208.50;;;193.75;;
45274;SDS011;31019;43.780;25.948;2023-04-25T21:01:47;218.40;;;202.43;;
45274;SDS011;31019;43.780;25.948;2023-04-25T21:04:48;164.13;;;152.60;;
45274;SDS011;31019;43.780;25.948;2023-04-25T21:07:31;203.48;;;189.07;;
45274;SDS011;31019;43.780;25.948;2023-04-25T21:10:16;161.23;;;150.32;;
45274;SDS011;31019;43.780;25.948;2023-04-25T21:16:49;107.63;;;98.43;;
45274;SDS011;31019;43.780;25.948;2023-04-25T21:22:36;215.52;;;200.95;;
45274;SDS011;31019;43.780;25.948;2023-04-25T21:25:38;149.73;;;140.77;;
45274;SDS011;31019;43.780;25.948;2023-04-25T21:31:41;211.35;;;196.57;;
45274;SDS011;31019;43.780;25.948;2023-04-25T21:34:35;209.75;;;195.15;;
45274;SDS011;31019;43.780;25.948;2023-04-25T21:37:52;191.27;;;177.88;;
45274;SDS011;31019;43.780;25.948;2023-04-25T21:40:42;198.32;;;184.27;;
45274;SDS011;31019;43.780;25.948;2023-04-25T21:43:41;136.40;;;126.45;;
45274;SDS011;31019;43.780;25.948;2023-04-25T21:46:33;128.45;;;119.40;;
45274;SDS011;31019;43.780;25.948;2023-04-25T21:49:16;141.68;;;131.18;;
45274;SDS011;31019;43.780;25.948;2023-04-25T21:51:59;142.32;;;132.75;;
45274;SDS011;31019;43.780;25.948;2023-04-25T21:54:48;82.47;;;75.07;;
45274;SDS011;31019;43.780;25.948;2023-04-25T21:57:28;82.05;;;74.65;;
45274;SDS011;31019;43.780;25.948;2023-04-25T22:00:12;76.82;;;69.88;;
45274;SDS011;31019;43.780;25.948;2023-04-25T22:09:22;84.88;;;77.05;;
45274;SDS011;31019;43.780;25.948;2023-04-25T22:12:11;123.78;;;113.88;;
45274;SDS011;31019;43.780;25.948;2023-04-25T22:15:04;111.80;;;102.28;;
45274;SDS011;31019;43.780;25.948;2023-04-25T22:17:52;110.22;;;100.85;;
45274;SDS011;31019;43.780;25.948;2023-04-25T22:20:52;93.75;;;85.45;;
45274;SDS011;31019;43.780;25.948;2023-04-25T22:26:35;106.75;;;97.35;;
45274;SDS011;31019;43.780;25.948;2023-04-25T22:29:32;98.75;;;89.82;;
45274;SDS011;31019;43.780;25.948;2023-04-25T22:32:50;105.40;;;96.25;;
45274;SDS011;31019;43.780;25.948;2023-04-25T22:44:32;98.20;;;89.40;;
45274;SDS011;31019;43.780;25.948;2023-04-25T22:45:22;123.38;;;113.07;;
45274;SDS011;31019;43.780;25.948;2023-04-25T22:48:06;116.40;;;106.60;;
45274;SDS011;31019;43.780;25.948;2023-04-25T22:50:47;118.70;;;108.57;;